Time;durP1;ratioP1;P1;durP2;ratioP2;P2;SDS_P1;SDS_P2;PMS_P1;PMS_P2;Temp;Humidity;BMP_temperature;BMP_pressure;BME280_temperature;BME280_humidity;BME280_pressure;Samples;Min_cycle;Max_cycle;Signal;HPM_P1;HPM_P2
2022/12/03 00:01:05;;;;;;;7.00;5.00;;;4.60;99.90;;;;;;5016643;28;20178;-79
2022/12/03 00:03:34;;;;;;;6.63;4.93;;;4.60;99.90;;;;;;5016623;28;20494;-78
2022/12/03 00:06:00;;;;;;;6.67;5.03;;;4.60;99.90;;;;;;5033488;28;20182;-80
2022/12/03 00:08:25;;;;;;;6.27;4.77;;;4.60;99.90;;;;;;5017149;28;20182;-81
2022/12/03 00:10:51;;;;;;;5.80;4.67;;;4.60;99.90;;;;;;5018110;28;20174;-79
2022/12/03 00:13:17;;;;;;;6.80;5.07;;;4.50;99.90;;;;;;5015928;28;20194;-80
2022/12/03 00:15:42;;;;;;;6.73;4.97;;;4.50;99.90;;;;;;5017850;28;20193;-78
2022/12/03 00:18:08;;;;;;;7.53;5.40;;;4.90;99.90;;;;;;5017597;28;20174;-79
2022/12/03 00:20:34;;;;;;;7.30;5.20;;;4.50;99.90;;;;;;5017389;28;20172;-79
2022/12/03 00:22:59;;;;;;;6.77;5.07;;;4.50;99.90;;;;;;5033706;28;20181;-79
2022/12/03 00:25:25;;;;;;;6.30;4.73;;;4.90;99.90;;;;;;5016303;28;20186;-77
2022/12/03 00:27:51;;;;;;;6.43;5.00;;;5.00;99.90;;;;;;5016874;28;20262;-80
2022/12/03 00:30:17;;;;;;;5.87;4.60;;;4.60;99.90;;;;;;5017132;28;20198;-79
2022/12/03 00:32:42;;;;;;;6.43;4.37;;;4.60;99.90;;;;;;5017502;28;20193;-79
2022/12/03 00:35:08;;;;;;;6.30;4.77;;;4.90;99.90;;;;;;5018122;28;20178;-79
2022/12/03 00:37:34;;;;;;;5.77;4.60;;;4.60;99.90;;;;;;5016777;28;20190;-79
2022/12/03 00:40:01;;;;;;;6.20;4.57;;;4.60;99.90;;;;;;5017772;28;20205;-82
2022/12/03 00:42:28;;;;;;;6.47;4.70;;;4.60;99.90;;;;;;5035727;28;20178;-78
2022/12/03 00:44:53;;;;;;;5.90;4.40;;;4.40;99.90;;;;;;5014856;28;20268;-80
2022/12/03 00:47:19;;;;;;;6.70;4.87;;;4.60;99.90;;;;;;5017077;28;20185;-79
2022/12/03 00:49:44;;;;;;;5.87;4.17;;;4.60;99.90;;;;;;5018327;28;20209;-79
2022/12/03 00:52:10;;;;;;;5.77;4.30;;;4.70;99.90;;;;;;5016699;28;20174;-79
2022/12/03 00:54:40;;;;;;;5.97;4.27;;;4.60;99.90;;;;;;5019330;28;20178;-77
2022/12/03 00:57:06;;;;;;;7.10;4.53;;;4.60;99.90;;;;;;5016151;28;20257;-79
2022/12/03 00:59:31;;;;;;;5.80;4.30;;;4.70;99.90;;;;;;5015900;28;20355;-79
2022/12/03 01:01:57;;;;;;;5.27;3.90;;;4.70;99.90;;;;;;5016703;28;20196;-79
2022/12/03 01:04:25;;;;;;;6.23;4.53;;;4.80;99.90;;;;;;5017990;28;20265;-80
2022/12/03 01:06:50;;;;;;;5.43;4.20;;;4.70;99.90;;;;;;5016422;28;20244;-80
2022/12/03 01:09:16;;;;;;;5.40;4.00;;;4.90;99.90;;;;;;5016145;28;20240;-79
2022/12/03 01:11:44;;;;;;;5.33;3.93;;;4.70;99.90;;;;;;5017899;28;20182;-80
2022/12/03 01:14:16;;;;;;;5.97;4.30;;;4.70;99.90;;;;;;5016942;28;20174;-80
2022/12/03 01:16:42;;;;;;;5.50;4.00;;;4.70;99.90;;;;;;5018890;28;20261;-79
2022/12/03 01:19:09;;;;;;;4.87;3.90;;;4.70;99.90;;;;;;5017487;28;20186;-80
2022/12/03 01:21:35;;;;;;;5.03;3.90;;;4.70;99.90;;;;;;5015991;28;20186;-79
2022/12/03 01:24:03;;;;;;;4.63;4.13;;;4.70;99.90;;;;;;5020648;28;20339;-80
2022/12/03 01:26:29;;;;;;;5.10;3.90;;;4.70;99.90;;;;;;5020943;28;20186;-79
2022/12/03 01:28:57;;;;;;;5.00;3.43;;;4.70;99.90;;;;;;5021544;28;20197;-78
2022/12/03 01:34:06;;;;;;;5.83;3.87;;;4.80;99.90;;;;;;5037004;28;20185;-80
2022/12/03 01:36:37;;;;;;;4.80;3.60;;;4.80;99.90;;;;;;5037170;28;20182;-79
2022/12/03 01:39:03;;;;;;;5.67;3.90;;;4.80;99.90;;;;;;5020107;28;20186;-81
2022/12/03 01:41:32;;;;;;;5.33;3.83;;;4.80;99.90;;;;;;5020422;28;20188;-80
2022/12/03 01:44:00;;;;;;;4.57;3.50;;;4.90;99.90;;;;;;5020637;28;20190;-79
2022/12/03 01:46:37;;;;;;;4.63;3.50;;;4.80;99.90;;;;;;5021597;28;20235;-79
2022/12/03 01:49:03;;;;;;;5.17;3.47;;;4.80;99.90;;;;;;5026341;28;20296;-79
2022/12/03 01:51:29;;;;;;;4.50;3.70;;;4.80;99.90;;;;;;5033340;28;20277;-78
2022/12/03 01:53:59;;;;;;;4.73;3.40;;;4.80;99.90;;;;;;5019777;28;20186;-80
2022/12/03 01:56:25;;;;;;;4.90;3.50;;;4.90;99.90;;;;;;5020066;28;20208;-80
2022/12/03 01:58:55;;;;;;;3.97;3.27;;;4.80;99.90;;;;;;5019146;28;20178;-79
2022/12/03 02:01:21;;;;;;;4.70;3.70;;;4.90;99.90;;;;;;5034544;28;20213;-80
2022/12/03 02:03:46;;;;;;;4.80;3.57;;;4.80;99.90;;;;;;5018753;28;20253;-79
2022/12/03 02:06:23;;;;;;;4.77;3.67;;;4.90;99.90;;;;;;5019983;28;20281;-79
2022/12/03 02:08:58;;;;;;;4.50;3.20;;;4.80;99.90;;;;;;5018209;28;20213;-80
2022/12/03 02:11:38;;;;;;;4.30;3.30;;;4.80;99.90;;;;;;5020025;28;20177;-79
2022/12/03 02:14:11;;;;;;;5.10;3.77;;;4.90;99.90;;;;;;5017201;28;20182;-79
2022/12/03 02:16:39;;;;;;;4.30;3.43;;;4.90;99.90;;;;;;5019637;28;20178;-79
2022/12/03 02:19:18;;;;;;;4.30;3.37;;;4.80;99.90;;;;;;5018677;28;20190;-79
2022/12/03 02:22:02;;;;;;;5.07;3.53;;;4.80;99.90;;;;;;5020178;28;20185;-79
2022/12/03 02:24:49;;;;;;;4.63;3.40;;;4.80;99.90;;;;;;5018999;28;20212;-79
2022/12/03 02:27:14;;;;;;;5.03;3.73;;;4.80;99.90;;;;;;5020628;28;20174;-79
2022/12/03 02:29:40;;;;;;;5.07;4.00;;;4.80;99.90;;;;;;5019708;28;20291;-80
2022/12/03 02:32:06;;;;;;;5.83;4.00;;;4.80;99.90;;;;;;5018631;28;20178;-79
2022/12/03 02:34:39;;;;;;;5.30;4.10;;;4.80;99.90;;;;;;5018882;28;20181;-79
2022/12/03 02:37:07;;;;;;;5.47;4.03;;;4.80;99.90;;;;;;5019906;28;20174;-80
2022/12/03 02:39:36;;;;;;;6.03;4.40;;;4.80;99.90;;;;;;5018651;28;21032;-79
2022/12/03 02:44:46;;;;;;;6.63;4.50;;;4.80;99.90;;;;;;5034669;28;20247;-79
2022/12/03 02:47:12;;;;;;;6.23;4.63;;;4.80;99.90;;;;;;5018782;28;20194;-79
2022/12/03 02:49:40;;;;;;;5.87;4.30;;;4.80;99.90;;;;;;5018607;28;20240;-78
2022/12/03 02:52:06;;;;;;;6.03;4.47;;;4.80;99.90;;;;;;5022224;28;20189;-79
2022/12/03 02:54:32;;;;;;;5.93;4.53;;;4.80;99.90;;;;;;5021999;28;20182;-79
2022/12/03 02:56:58;;;;;;;6.10;4.60;;;4.80;99.90;;;;;;5018069;28;21089;-78
2022/12/03 02:59:23;;;;;;;5.87;4.20;;;4.70;99.90;;;;;;5017583;28;20198;-79
2022/12/03 03:01:49;;;;;;;6.43;4.70;;;4.80;99.90;;;;;;5017761;28;20281;-80
2022/12/03 03:04:15;;;;;;;7.87;4.87;;;4.80;99.90;;;;;;5018814;28;20457;-76
2022/12/03 03:06:43;;;;;;;8.10;5.10;;;4.80;99.90;;;;;;5019798;28;20187;-79
2022/12/03 03:09:09;;;;;;;7.17;5.33;;;4.90;99.90;;;;;;5019520;28;20205;-79
2022/12/03 03:11:35;;;;;;;6.27;4.60;;;4.80;99.90;;;;;;5019557;28;20213;-79
2022/12/03 03:14:02;;;;;;;7.43;5.13;;;4.80;99.90;;;;;;5017888;28;20174;-78
2022/12/03 03:16:27;;;;;;;7.57;4.90;;;4.80;99.90;;;;;;5018169;28;20189;-79
2022/12/03 03:18:53;;;;;;;6.97;5.17;;;4.90;99.90;;;;;;5018499;28;20186;-79
2022/12/03 03:21:21;;;;;;;5.63;4.30;;;4.80;99.90;;;;;;5017946;28;20177;-79
2022/12/03 03:23:47;;;;;;;6.83;4.77;;;4.80;99.90;;;;;;5019801;28;20198;-79
2022/12/03 03:26:15;;;;;;;7.13;5.17;;;4.90;99.90;;;;;;5017334;28;20216;-79
2022/12/03 03:28:47;;;;;;;7.33;5.17;;;4.80;99.90;;;;;;5020632;28;20272;-79
2022/12/03 03:31:19;;;;;;;7.73;4.87;;;4.90;99.90;;;;;;5032124;28;20197;-79
2022/12/03 03:33:47;;;;;;;6.87;4.73;;;4.80;99.90;;;;;;5032409;28;20213;-79
2022/12/03 03:36:14;;;;;;;7.87;5.30;;;4.80;99.90;;;;;;5023617;28;20182;-78
2022/12/03 03:38:40;;;;;;;7.30;4.90;;;4.80;99.90;;;;;;5017743;28;20182;-78
2022/12/03 03:41:08;;;;;;;6.23;4.40;;;4.80;99.90;;;;;;5017786;28;20200;-78
2022/12/03 03:43:37;;;;;;;7.73;5.40;;;4.80;99.90;;;;;;5016494;28;20185;-79
2022/12/03 03:46:05;;;;;;;6.93;5.00;;;4.80;99.90;;;;;;5018090;28;20193;-79
2022/12/03 03:48:33;;;;;;;6.13;4.90;;;4.80;99.90;;;;;;5017935;28;20185;-78
2022/12/03 03:50:59;;;;;;;6.90;5.07;;;5.00;99.90;;;;;;5024977;28;20182;-79
2022/12/03 03:53:28;;;;;;;8.37;5.20;;;4.80;99.90;;;;;;5018916;28;20193;-79
2022/12/03 03:55:54;;;;;;;7.40;5.23;;;4.80;99.90;;;;;;5017324;28;21556;-79
2022/12/03 03:58:19;;;;;;;6.77;4.97;;;4.90;99.90;;;;;;5016990;28;20430;-78
2022/12/03 04:00:47;;;;;;;7.33;5.30;;;4.80;99.90;;;;;;5017250;28;20548;-79
2022/12/03 04:03:18;;;;;;;7.83;5.40;;;4.80;99.90;;;;;;5023620;28;20186;-79
2022/12/03 04:05:43;;;;;;;7.27;5.27;;;4.80;99.90;;;;;;5033046;28;20182;-78
2022/12/03 04:08:09;;;;;;;6.47;4.67;;;4.90;99.90;;;;;;5016974;28;20248;-79
2022/12/03 04:13:19;;;;;;;6.03;4.53;;;4.80;99.90;;;;;;5035797;28;20261;-79
2022/12/03 04:15:44;;;;;;;7.40;5.13;;;4.80;99.90;;;;;;5017364;28;20197;-78
2022/12/03 04:22:38;;;;;;;5.97;4.87;;;4.80;99.90;;;;;;5035958;28;20219;-79
2022/12/03 04:23:42;;;;;;;6.87;4.80;;;4.70;99.90;;;;;;5028687;28;20358;-78
2022/12/03 04:28:52;;;;;;;7.30;5.07;;;4.80;99.90;;;;;;5034515;28;20260;-80
2022/12/03 04:36:53;;;;;;;5.93;4.53;;;4.70;99.90;;;;;;5034749;28;20240;-77
2022/12/03 04:39:18;;;;;;;6.67;4.63;;;4.70;99.90;;;;;;5017043;28;20181;-80
2022/12/03 04:41:44;;;;;;;7.37;4.93;;;4.70;99.90;;;;;;5017064;28;20197;-79
2022/12/03 04:46:58;;;;;;;6.83;4.60;;;4.70;99.90;;;;;;5035638;28;20200;-79
2022/12/03 04:49:27;;;;;;;7.07;5.23;;;4.70;99.90;;;;;;5033232;28;20269;-78
2022/12/03 04:51:54;;;;;;;8.60;5.93;;;4.70;99.90;;;;;;5015405;28;20188;-79
2022/12/03 04:54:20;;;;;;;6.93;5.17;;;4.70;99.90;;;;;;5016399;28;20190;-80
2022/12/03 04:56:46;;;;;;;8.30;5.17;;;4.70;99.90;;;;;;5016856;28;20182;-79
2022/12/03 04:59:14;;;;;;;7.53;5.23;;;4.70;99.90;;;;;;5020778;28;20209;-79
2022/12/03 05:01:40;;;;;;;7.03;5.17;;;4.70;99.90;;;;;;5025363;28;20189;-80
2022/12/03 05:04:06;;;;;;;7.00;5.27;;;4.70;99.90;;;;;;5019735;28;20178;-80
2022/12/03 05:06:31;;;;;;;7.27;4.97;;;4.70;99.90;;;;;;5019880;28;20188;-79
2022/12/03 05:08:57;;;;;;;6.87;4.93;;;4.60;99.90;;;;;;5021828;28;20198;-78
2022/12/03 05:11:25;;;;;;;6.17;4.63;;;4.60;99.90;;;;;;5021280;28;21223;-79
2022/12/03 05:13:51;;;;;;;6.60;4.70;;;4.60;99.90;;;;;;5016240;28;20256;-79
2022/12/03 05:16:17;;;;;;;6.47;4.67;;;4.60;99.90;;;;;;5019160;28;20181;-79
2022/12/03 05:18:43;;;;;;;6.83;4.90;;;4.60;99.90;;;;;;5018617;28;20182;-79
2022/12/03 05:21:11;;;;;;;7.53;5.23;;;4.60;99.90;;;;;;5021374;28;20193;-79
2022/12/03 05:23:36;;;;;;;5.93;4.60;;;4.70;99.90;;;;;;5020562;28;20188;-79
2022/12/03 05:26:02;;;;;;;6.60;4.83;;;4.60;99.90;;;;;;5039310;28;20180;-79
2022/12/03 05:28:28;;;;;;;7.00;4.63;;;4.60;99.90;;;;;;5029105;28;20226;-77
2022/12/03 05:30:53;;;;;;;6.97;5.20;;;4.60;99.90;;;;;;5024604;28;20197;-80
2022/12/03 05:33:19;;;;;;;6.53;4.87;;;4.60;99.90;;;;;;5021145;28;20193;-78
2022/12/03 05:35:45;;;;;;;6.03;4.97;;;4.60;99.90;;;;;;5021459;28;20182;-80
2022/12/03 05:38:11;;;;;;;6.03;4.47;;;4.60;99.90;;;;;;5021707;28;20276;-78
2022/12/03 05:40:37;;;;;;;6.27;4.73;;;4.60;99.90;;;;;;5019887;28;20178;-79
2022/12/03 05:43:03;;;;;;;5.93;4.43;;;4.60;99.90;;;;;;5021247;28;20189;-80
2022/12/03 05:45:31;;;;;;;6.10;4.23;;;4.60;99.90;;;;;;5019017;28;20190;-80
2022/12/03 05:47:58;;;;;;;6.23;4.90;;;4.60;99.90;;;;;;5024070;28;20835;-79
2022/12/03 05:50:26;;;;;;;6.63;5.40;;;5.00;99.90;;;;;;5018478;28;20206;-80
2022/12/03 05:52:52;;;;;;;7.53;5.47;;;4.90;99.90;;;;;;5019333;28;20182;-79
2022/12/03 05:55:18;;;;;;;12.83;10.23;;;4.70;99.90;;;;;;5020453;28;20190;-80
2022/12/03 05:57:44;;;;;;;10.03;6.93;;;4.60;99.90;;;;;;5020597;28;20174;-80
2022/12/03 06:00:19;;;;;;;8.77;6.00;;;4.60;99.90;;;;;;5020117;28;20240;-79
2022/12/03 06:02:45;;;;;;;6.67;5.20;;;4.60;99.90;;;;;;5019678;28;20186;-79
2022/12/03 06:05:11;;;;;;;7.33;5.10;;;5.10;99.90;;;;;;5032076;28;20189;-80
2022/12/03 06:07:37;;;;;;;6.53;4.70;;;4.60;99.90;;;;;;5014504;28;20205;-79
2022/12/03 06:10:04;;;;;;;7.97;5.20;;;4.50;99.90;;;;;;5018573;28;20206;-79
2022/12/03 06:12:30;;;;;;;6.70;4.90;;;4.60;99.90;;;;;;5020845;28;20184;-80
2022/12/03 06:14:56;;;;;;;7.10;5.00;;;4.50;99.90;;;;;;5020367;28;20174;-79
2022/12/03 06:17:22;;;;;;;8.00;5.40;;;4.60;99.90;;;;;;5017026;28;20175;-79
2022/12/03 06:19:47;;;;;;;5.87;4.60;;;4.60;99.90;;;;;;5019456;28;20339;-78
2022/12/03 06:22:13;;;;;;;6.70;4.90;;;4.50;99.90;;;;;;5021484;28;20182;-79
2022/12/03 06:24:39;;;;;;;6.87;4.70;;;4.50;99.90;;;;;;5019174;28;20273;-79
2022/12/03 06:27:04;;;;;;;6.43;5.00;;;4.50;99.90;;;;;;5018786;28;20209;-79
2022/12/03 06:29:30;;;;;;;6.17;4.63;;;4.90;99.90;;;;;;5019007;28;20213;-79
2022/12/03 06:31:56;;;;;;;6.17;4.40;;;4.30;99.90;;;;;;5018892;28;20181;-79
2022/12/03 06:34:24;;;;;;;6.33;4.50;;;4.40;99.90;;;;;;5020354;28;20186;-79
2022/12/03 06:36:50;;;;;;;6.67;4.70;;;4.40;99.90;;;;;;5020421;28;20189;-79
2022/12/03 06:39:16;;;;;;;6.70;4.80;;;4.50;99.90;;;;;;5018974;28;20181;-79
2022/12/03 06:41:42;;;;;;;7.33;5.47;;;4.40;99.90;;;;;;5017451;28;20208;-79
2022/12/03 06:44:07;;;;;;;6.87;5.27;;;4.40;99.90;;;;;;5018723;28;20182;-79
2022/12/03 06:46:33;;;;;;;6.27;4.60;;;4.70;99.90;;;;;;5020069;28;20232;-79
2022/12/03 06:48:59;;;;;;;6.10;4.30;;;4.30;99.90;;;;;;5015822;28;20293;-78
2022/12/03 06:51:25;;;;;;;5.13;3.93;;;4.20;99.90;;;;;;5021881;28;20178;-77
2022/12/03 06:53:50;;;;;;;6.00;4.33;;;4.30;99.90;;;;;;5034660;28;20264;-80
2022/12/03 06:56:16;;;;;;;5.83;4.20;;;4.30;99.90;;;;;;5019379;28;20200;-80
2022/12/03 06:58:42;;;;;;;6.43;4.57;;;4.40;99.90;;;;;;5020125;28;20174;-79
2022/12/03 07:01:08;;;;;;;5.50;4.07;;;4.50;99.90;;;;;;5019957;28;20166;-79
2022/12/03 07:03:33;;;;;;;5.97;4.70;;;4.30;99.90;;;;;;5018399;28;20178;-79
2022/12/03 07:06:02;;;;;;;6.37;4.53;;;4.30;99.90;;;;;;5018829;28;20190;-79
2022/12/03 07:08:27;;;;;;;7.40;5.37;;;4.60;99.90;;;;;;5016828;28;20178;-80
2022/12/03 07:10:53;;;;;;;6.07;4.60;;;4.60;99.90;;;;;;5018211;28;20235;-82
2022/12/03 07:13:26;;;;;;;5.47;4.17;;;4.30;99.90;;;;;;5018804;28;20201;-82
2022/12/03 07:15:54;;;;;;;5.40;4.27;;;4.30;99.90;;;;;;5018395;28;20181;-81
2022/12/03 07:18:20;;;;;;;6.57;4.60;;;4.30;99.90;;;;;;5016981;28;20174;-79
2022/12/03 07:20:45;;;;;;;7.43;5.30;;;4.30;99.90;;;;;;5017944;28;20265;-80
2022/12/03 07:23:11;;;;;;;6.67;4.87;;;4.30;99.90;;;;;;5020046;28;20178;-80
2022/12/03 07:25:39;;;;;;;6.70;4.80;;;4.30;99.90;;;;;;5019131;28;20241;-79
2022/12/03 07:28:07;;;;;;;6.63;4.47;;;4.30;99.90;;;;;;5016770;28;20233;-80
2022/12/03 07:30:32;;;;;;;13.90;9.80;;;4.30;99.90;;;;;;5015566;28;20199;-81
2022/12/03 07:32:58;;;;;;;8.80;6.00;;;4.30;99.90;;;;;;5020664;28;20185;-79
2022/12/03 07:35:24;;;;;;;6.70;5.10;;;4.30;99.90;;;;;;5015660;28;20221;-80
2022/12/03 07:37:49;;;;;;;7.60;5.57;;;4.40;99.90;;;;;;5018779;28;20182;-80
2022/12/03 07:40:15;;;;;;;7.67;5.27;;;4.30;99.90;;;;;;5018254;28;20199;-80
2022/12/03 07:42:43;;;;;;;6.77;5.27;;;4.30;99.90;;;;;;5018900;28;20186;-76
2022/12/03 07:45:09;;;;;;;6.67;4.80;;;4.60;99.90;;;;;;5019468;28;20190;-76
2022/12/03 07:47:35;;;;;;;6.43;4.60;;;4.40;99.90;;;;;;5021760;28;20185;-75
2022/12/03 07:50:00;;;;;;;6.67;4.83;;;4.50;99.90;;;;;;5018140;28;20216;-74
2022/12/03 07:52:26;;;;;;;6.80;4.63;;;4.40;99.90;;;;;;5018238;28;20216;-76
2022/12/03 07:54:51;;;;;;;9.53;4.90;;;4.50;99.90;;;;;;5034184;28;20201;-77
2022/12/03 07:57:17;;;;;;;6.50;4.50;;;4.50;99.90;;;;;;5018273;28;20187;-77
2022/12/03 07:59:43;;;;;;;6.33;4.33;;;4.50;99.90;;;;;;5017999;28;20186;-76
2022/12/03 08:02:10;;;;;;;5.97;4.60;;;4.60;99.90;;;;;;5018201;28;20193;-76
2022/12/03 08:04:36;;;;;;;5.70;4.37;;;4.50;99.90;;;;;;5016353;28;20275;-76
2022/12/03 08:07:04;;;;;;;6.00;4.77;;;4.50;99.90;;;;;;5018620;28;20212;-76
2022/12/03 08:09:32;;;;;;;5.93;4.47;;;4.50;99.90;;;;;;5018284;28;20268;-76
2022/12/03 08:12:05;;;;;;;6.60;4.87;;;4.60;99.90;;;;;;5019505;28;20212;-75
2022/12/03 08:14:30;;;;;;;6.57;4.57;;;4.50;99.90;;;;;;5015835;28;20182;-75
2022/12/03 08:16:56;;;;;;;6.00;4.63;;;4.50;99.90;;;;;;5017958;28;20277;-76
2022/12/03 08:19:21;;;;;;;6.47;4.27;;;4.50;99.90;;;;;;5018182;28;20185;-75
2022/12/03 08:21:47;;;;;;;5.53;4.23;;;4.50;99.90;;;;;;5017555;28;20347;-76
2022/12/03 08:24:17;;;;;;;5.77;4.40;;;4.50;99.90;;;;;;5016774;28;20190;-76
2022/12/03 08:26:44;;;;;;;5.93;4.57;;;4.50;99.90;;;;;;5016564;28;20285;-74
2022/12/03 08:29:20;;;;;;;7.03;5.03;;;4.70;99.90;;;;;;5017426;28;20471;-76
2022/12/03 08:31:48;;;;;;;6.00;4.47;;;4.50;99.90;;;;;;5036148;28;20209;-73
2022/12/03 08:34:19;;;;;;;6.70;4.60;;;4.50;99.90;;;;;;5039243;28;20188;-73
2022/12/03 08:36:48;;;;;;;6.33;4.57;;;4.50;99.90;;;;;;5033563;28;20209;-72
2022/12/03 08:39:28;;;;;;;6.03;4.37;;;4.60;99.90;;;;;;5016086;28;20258;-72
2022/12/03 08:44:47;;;;;;;5.30;4.00;;;4.60;99.90;;;;;;5038580;28;20189;-73
2022/12/03 08:47:23;;;;;;;6.30;4.43;;;4.60;99.90;;;;;;5021475;28;20194;-72
2022/12/03 08:50:15;;;;;;;7.17;4.67;;;4.50;99.90;;;;;;5021271;28;20210;-72
2022/12/03 08:52:43;;;;;;;6.13;4.43;;;4.60;99.90;;;;;;5039925;28;20190;-72
2022/12/03 08:55:33;;;;;;;6.97;4.77;;;4.60;99.90;;;;;;5018260;28;20182;-73
2022/12/03 08:58:02;;;;;;;6.90;5.10;;;4.70;99.90;;;;;;5021460;28;20268;-71
2022/12/03 09:00:30;;;;;;;5.97;4.57;;;4.70;99.90;;;;;;5037258;28;20185;-72
2022/12/03 09:03:00;;;;;;;6.47;4.20;;;4.80;99.90;;;;;;5021323;28;20186;-71
2022/12/03 09:05:31;;;;;;;6.37;4.80;;;4.70;99.90;;;;;;5020826;28;20189;-72
2022/12/03 09:08:01;;;;;;;6.50;4.50;;;4.70;99.90;;;;;;5021360;28;20186;-71
2022/12/03 09:10:29;;;;;;;6.77;4.83;;;4.70;99.90;;;;;;5020870;28;20210;-72
2022/12/03 09:12:54;;;;;;;5.90;4.37;;;4.80;99.90;;;;;;5036394;28;20258;-72
2022/12/03 09:15:20;;;;;;;6.23;4.40;;;4.70;99.90;;;;;;5023183;28;20293;-72
2022/12/03 09:17:48;;;;;;;6.73;4.77;;;4.80;99.90;;;;;;5016471;28;20327;-73
2022/12/03 09:20:14;;;;;;;6.27;4.60;;;4.80;99.90;;;;;;5021257;28;20186;-72
2022/12/03 09:22:42;;;;;;;6.17;4.90;;;4.80;99.90;;;;;;5020237;28;20204;-73
2022/12/03 09:25:07;;;;;;;6.47;4.30;;;4.80;99.90;;;;;;5019587;28;20273;-72
2022/12/03 09:27:33;;;;;;;7.17;4.97;;;4.80;99.90;;;;;;5020668;28;20332;-73
2022/12/03 09:29:59;;;;;;;6.67;5.27;;;4.80;99.90;;;;;;5037282;28;20212;-74
2022/12/03 09:32:24;;;;;;;7.30;5.07;;;4.80;99.90;;;;;;5021405;28;20206;-73
2022/12/03 09:34:50;;;;;;;7.40;4.67;;;4.80;99.90;;;;;;5021644;28;20186;-73
2022/12/03 09:37:16;;;;;;;6.37;5.17;;;4.90;99.90;;;;;;5028883;28;20485;-72
2022/12/03 09:39:41;;;;;;;6.47;5.07;;;4.90;99.90;;;;;;5022163;28;20182;-71
2022/12/03 09:42:10;;;;;;;7.33;5.40;;;4.90;99.90;;;;;;5019761;28;20277;-71
2022/12/03 09:44:37;;;;;;;6.90;5.03;;;4.90;99.90;;;;;;5020527;28;20292;-72
2022/12/03 09:47:04;;;;;;;7.20;5.13;;;4.90;99.90;;;;;;5029112;28;20190;-72
2022/12/03 09:49:32;;;;;;;6.57;4.73;;;4.90;99.90;;;;;;5020421;28;20202;-73
2022/12/03 09:52:00;;;;;;;6.83;4.70;;;4.90;99.90;;;;;;5020671;28;20196;-72
2022/12/03 09:54:31;;;;;;;7.37;5.70;;;4.90;99.90;;;;;;5019559;28;20292;-71
2022/12/03 09:57:01;;;;;;;7.50;5.50;;;5.00;99.90;;;;;;5004804;28;20175;-72
2022/12/03 09:59:32;;;;;;;11.43;5.73;;;4.90;99.90;;;;;;5034821;28;20190;-73
2022/12/03 10:02:00;;;;;;;7.57;5.83;;;5.00;99.90;;;;;;5020236;28;20218;-72
2022/12/03 10:04:29;;;;;;;7.57;5.77;;;4.90;99.90;;;;;;5020396;28;20231;-72
2022/12/03 10:06:59;;;;;;;7.63;5.33;;;5.00;99.90;;;;;;5019999;28;20222;-72
2022/12/03 10:09:27;;;;;;;6.77;5.10;;;4.90;99.90;;;;;;5020299;28;20209;-72
2022/12/03 10:11:57;;;;;;;8.27;5.67;;;5.00;99.90;;;;;;5021511;28;20193;-72
2022/12/03 10:14:26;;;;;;;8.43;6.10;;;5.00;99.90;;;;;;5019868;28;20216;-73
2022/12/03 10:16:52;;;;;;;8.17;5.90;;;5.00;99.90;;;;;;5020810;28;20233;-72
2022/12/03 10:19:29;;;;;;;8.30;5.90;;;5.00;99.90;;;;;;5019458;28;20186;-73
2022/12/03 10:21:54;;;;;;;8.10;5.93;;;5.00;99.90;;;;;;5019983;28;20216;-72
2022/12/03 10:24:28;;;;;;;7.47;5.47;;;5.00;99.90;;;;;;5034808;28;20213;-72
2022/12/03 10:27:00;;;;;;;7.53;5.80;;;5.00;99.90;;;;;;5020271;28;20185;-73
2022/12/03 10:29:34;;;;;;;8.23;6.00;;;5.00;99.90;;;;;;5020289;28;20212;-72
2022/12/03 10:32:07;;;;;;;7.27;5.37;;;5.00;99.90;;;;;;5020117;28;20182;-72
2022/12/03 10:34:35;;;;;;;8.33;6.20;;;5.00;99.90;;;;;;5028648;28;20174;-73
2022/12/03 10:37:12;;;;;;;8.50;5.93;;;5.10;99.90;;;;;;5021661;28;20228;-72
2022/12/03 10:40:00;;;;;;;7.83;5.93;;;5.00;99.90;;;;;;5018492;28;20193;-72
2022/12/03 10:42:29;;;;;;;7.87;5.40;;;5.10;99.90;;;;;;5017678;28;20182;-72
2022/12/03 10:45:17;;;;;;;8.70;5.70;;;5.10;99.90;;;;;;5018924;28;20201;-72
2022/12/03 10:48:05;;;;;;;8.07;6.07;;;5.10;99.90;;;;;;5019183;28;20559;-73
2022/12/03 10:50:34;;;;;;;8.43;6.07;;;5.10;99.90;;;;;;5018361;28;20202;-71
2022/12/03 10:53:00;;;;;;;7.63;6.17;;;5.00;99.90;;;;;;5015979;28;20179;-72
2022/12/03 10:55:32;;;;;;;7.90;5.70;;;5.10;99.90;;;;;;5028486;28;20174;-75
2022/12/03 10:57:57;;;;;;;9.40;6.20;;;5.10;99.90;;;;;;5016570;28;20245;-74
2022/12/03 11:00:23;;;;;;;9.00;5.87;;;5.10;99.90;;;;;;5013657;28;20625;-75
2022/12/03 11:02:49;;;;;;;9.20;6.60;;;5.10;99.90;;;;;;5019583;28;20190;-74
2022/12/03 11:05:17;;;;;;;10.23;7.10;;;5.20;99.90;;;;;;5035141;28;20257;-72
2022/12/03 11:07:43;;;;;;;9.77;7.10;;;5.20;99.90;;;;;;5014565;28;20277;-72
2022/12/03 11:10:18;;;;;;;10.00;6.80;;;5.20;99.90;;;;;;5018286;28;20213;-73
2022/12/03 11:13:24;;;;;;;9.70;7.20;;;5.20;99.90;;;;;;5019548;28;20184;-74
2022/12/03 11:15:50;;;;;;;9.40;7.20;;;5.20;99.90;;;;;;5017474;28;20186;-76
2022/12/03 11:18:34;;;;;;;10.10;7.03;;;5.20;99.90;;;;;;5015781;28;20201;-73
2022/12/03 11:21:05;;;;;;;9.30;6.63;;;5.30;99.90;;;;;;5017408;28;20201;-75
2022/12/03 11:23:43;;;;;;;9.73;6.63;;;5.30;99.90;;;;;;5017711;28;20193;-75
2022/12/03 11:26:09;;;;;;;10.20;6.93;;;5.30;99.90;;;;;;5034606;28;20185;-74
2022/12/03 11:29:04;;;;;;;9.77;7.00;;;5.30;99.90;;;;;;5034840;28;20188;-72
2022/12/03 11:31:33;;;;;;;10.67;7.07;;;5.30;99.90;;;;;;5021538;28;20562;-74
2022/12/03 11:34:28;;;;;;;12.40;8.03;;;5.30;99.90;;;;;;5018720;28;20192;-74
2022/12/03 11:37:09;;;;;;;10.67;7.27;;;5.40;99.90;;;;;;5006681;28;20212;-73
2022/12/03 11:39:43;;;;;;;11.47;7.50;;;5.30;99.90;;;;;;5004584;28;21678;-74
2022/12/03 11:42:24;;;;;;;10.90;7.87;;;5.30;99.90;;;;;;5020728;28;20198;-73
2022/12/03 11:45:09;;;;;;;11.83;8.00;;;5.40;99.90;;;;;;5025056;28;20181;-71
2022/12/03 11:47:44;;;;;;;10.43;7.10;;;5.50;99.90;;;;;;5024595;28;20283;-73
2022/12/03 11:50:19;;;;;;;10.63;7.13;;;5.40;99.90;;;;;;5015657;28;20228;-72
2022/12/03 11:52:52;;;;;;;11.37;7.47;;;5.40;99.90;;;;;;5025787;28;20189;-72
2022/12/03 11:55:46;;;;;;;10.57;7.23;;;5.50;99.90;;;;;;5018287;28;20189;-73
2022/12/03 11:58:26;;;;;;;9.90;7.20;;;5.50;99.90;;;;;;5025890;28;20204;-73
2022/12/03 12:00:54;;;;;;;10.73;7.23;;;5.50;99.90;;;;;;5019458;28;20243;-73
2022/12/03 12:03:27;;;;;;;11.60;7.67;;;5.70;99.90;;;;;;5016139;28;20194;-73
2022/12/03 12:06:04;;;;;;;11.60;8.33;;;5.50;99.90;;;;;;5017272;28;20193;-72
2022/12/03 12:08:30;;;;;;;10.77;7.53;;;5.50;99.90;;;;;;5014798;28;20189;-73
2022/12/03 12:10:55;;;;;;;11.83;8.23;;;5.50;99.90;;;;;;5017218;28;20202;-72
2022/12/03 12:13:27;;;;;;;12.30;8.00;;;5.50;99.90;;;;;;5017957;28;20181;-75
2022/12/03 12:15:53;;;;;;;13.50;8.73;;;5.50;99.90;;;;;;5017338;28;20182;-74
2022/12/03 12:18:38;;;;;;;12.87;8.93;;;5.40;99.90;;;;;;5018592;28;20194;-73
2022/12/03 12:21:40;;;;;;;12.73;8.77;;;5.40;99.90;;;;;;5018322;28;20216;-73
2022/12/03 12:24:28;;;;;;;12.90;8.80;;;5.40;99.90;;;;;;5014396;28;20184;-73
2022/12/03 12:26:54;;;;;;;12.33;8.13;;;5.40;99.90;;;;;;5019178;28;20185;-74
2022/12/03 12:29:20;;;;;;;10.80;7.60;;;5.50;99.90;;;;;;5017739;28;20232;-71
2022/12/03 12:31:47;;;;;;;11.27;7.40;;;5.30;99.90;;;;;;5019710;28;20177;-73
2022/12/03 12:34:13;;;;;;;10.70;7.27;;;5.40;99.90;;;;;;5019460;28;20181;-73
2022/12/03 12:36:41;;;;;;;9.73;7.10;;;5.50;99.90;;;;;;5016320;28;20174;-74
2022/12/03 12:39:12;;;;;;;10.93;7.47;;;5.40;99.90;;;;;;5022616;28;20186;-72
2022/12/03 12:41:49;;;;;;;12.77;8.50;;;5.50;99.90;;;;;;5016987;28;20189;-73
2022/12/03 12:44:14;;;;;;;11.67;7.80;;;5.50;99.90;;;;;;5032657;28;20181;-72
2022/12/03 12:46:44;;;;;;;15.33;9.97;;;5.50;99.90;;;;;;5015814;28;20284;-73
2022/12/03 12:49:14;;;;;;;13.77;9.13;;;5.50;99.90;;;;;;5025592;28;20211;-74
2022/12/03 12:51:44;;;;;;;14.67;9.43;;;5.50;99.90;;;;;;5016807;28;20217;-72
2022/12/03 12:54:15;;;;;;;16.07;10.43;;;5.50;99.90;;;;;;5011098;28;20178;-73
2022/12/03 12:56:48;;;;;;;16.63;11.23;;;5.40;99.90;;;;;;5015939;28;20174;-73
2022/12/03 12:59:23;;;;;;;15.83;10.07;;;5.40;99.90;;;;;;5000846;28;20197;-74
2022/12/03 13:01:49;;;;;;;15.50;9.63;;;5.50;99.90;;;;;;5016857;28;20311;-74
2022/12/03 13:04:18;;;;;;;14.47;9.70;;;5.40;99.90;;;;;;5016610;28;20185;-73
2022/12/03 13:06:49;;;;;;;13.53;8.73;;;5.50;99.90;;;;;;5017880;28;21104;-73
2022/12/03 13:09:18;;;;;;;12.90;8.40;;;5.40;99.90;;;;;;5015928;28;20254;-74
2022/12/03 13:11:55;;;;;;;12.43;8.60;;;5.40;99.90;;;;;;5014616;28;20185;-74
2022/12/03 13:14:30;;;;;;;13.50;8.67;;;5.40;99.90;;;;;;5016865;28;20231;-74
2022/12/03 13:16:57;;;;;;;13.90;8.43;;;5.40;99.90;;;;;;5034742;28;20239;-73
2022/12/03 13:19:29;;;;;;;13.70;8.83;;;5.40;99.90;;;;;;5020386;28;20182;-73
2022/12/03 13:22:09;;;;;;;13.00;8.73;;;5.40;99.90;;;;;;5020063;28;20276;-75
2022/12/03 13:24:42;;;;;;;12.90;8.70;;;5.50;99.90;;;;;;5018513;28;20240;-75
2022/12/03 13:27:29;;;;;;;13.37;8.90;;;5.50;99.90;;;;;;5037475;28;20224;-74
2022/12/03 13:30:00;;;;;;;12.93;8.23;;;5.50;99.90;;;;;;5018024;28;20210;-74